sensor_id;sensor_type;location;lat;lon;timestamp;pressure;altitude;pressure_sealevel;temperature;humidity
60427;BME280;46274;47.168;27.604;2023-05-18T00:03:00;99765.66;;;16.95;62.58
60427;BME280;46274;47.168;27.604;2023-05-18T00:09:03;99787.22;;;15.45;70.60
60427;BME280;46274;47.168;27.604;2023-05-18T00:15:05;99821.88;;;16.66;65.76
60427;BME280;46274;47.168;27.604;2023-05-18T00:21:07;99845.06;;;17.14;64.49
60427;BME280;46274;47.168;27.604;2023-05-18T00:27:09;99766.25;;;16.79;63.96
60427;BME280;46274;47.168;27.604;2023-05-18T00:33:11;99762.25;;;15.93;68.99
60427;BME280;46274;47.168;27.604;2023-05-18T00:39:13;99806.47;;;15.63;72.77
60427;BME280;46274;47.168;27.604;2023-05-18T00:45:14;99783.22;;;15.47;72.31
60427;BME280;46274;47.168;27.604;2023-05-18T00:51:20;99843.13;;;16.64;68.07
60427;BME280;46274;47.168;27.604;2023-05-18T00:57:26;99801.19;;;14.83;75.55
60427;BME280;46274;47.168;27.604;2023-05-18T01:03:29;99800.31;;;15.88;70.62
60427;BME280;46274;47.168;27.604;2023-05-18T01:09:31;99790.78;;;15.97;69.13
60427;BME280;46274;47.168;27.604;2023-05-18T01:15:37;99802.19;;;16.26;67.34
60427;BME280;46274;47.168;27.604;2023-05-18T01:27:44;99871.09;;;16.73;65.26
60427;BME280;46274;47.168;27.604;2023-05-18T01:33:47;99812.81;;;15.57;69.25
60427;BME280;46274;47.168;27.604;2023-05-18T01:39:48;99875.88;;;15.22;72.71
60427;BME280;46274;47.168;27.604;2023-05-18T01:45:55;99877.06;;;15.73;70.53
60427;BME280;46274;47.168;27.604;2023-05-18T01:52:03;99789.25;;;15.69;66.87
60427;BME280;46274;47.168;27.604;2023-05-18T01:58:07;99863.59;;;15.72;69.66
60427;BME280;46274;47.168;27.604;2023-05-18T02:04:10;99891.31;;;15.68;70.89
60427;BME280;46274;47.168;27.604;2023-05-18T02:10:12;99872.03;;;16.22;67.32
60427;BME280;46274;47.168;27.604;2023-05-18T02:16:14;99848.84;;;16.31;66.63
60427;BME280;46274;47.168;27.604;2023-05-18T02:22:16;99835.53;;;15.38;71.60
60427;BME280;46274;47.168;27.604;2023-05-18T02:28:18;99835.00;;;15.81;69.54
60427;BME280;46274;47.168;27.604;2023-05-18T02:34:19;99846.38;;;15.78;70.35
60427;BME280;46274;47.168;27.604;2023-05-18T02:40:23;99827.53;;;15.49;72.97
60427;BME280;46274;47.168;27.604;2023-05-18T02:46:24;99845.09;;;15.80;70.31
60427;BME280;46274;47.168;27.604;2023-05-18T02:52:26;99874.00;;;15.03;75.11
60427;BME280;46274;47.168;27.604;2023-05-18T02:58:29;99851.78;;;15.91;70.11
60427;BME280;46274;47.168;27.604;2023-05-18T03:04:31;99867.09;;;15.92;70.19
60427;BME280;46274;47.168;27.604;2023-05-18T03:10:33;99877.06;;;15.60;71.31
60427;BME280;46274;47.168;27.604;2023-05-18T03:16:35;99879.09;;;15.91;68.18
60427;BME280;46274;47.168;27.604;2023-05-18T03:22:39;99926.06;;;16.26;70.29
60427;BME280;46274;47.168;27.604;2023-05-18T03:28:41;99921.00;;;15.32;74.85
60427;BME280;46274;47.168;27.604;2023-05-18T03:34:46;99976.00;;;15.82;72.54
60427;BME280;46274;47.168;27.604;2023-05-18T03:40:52;99896.00;;;15.55;70.69
60427;BME280;46274;47.168;27.604;2023-05-18T03:46:54;99933.38;;;15.54;72.42
60427;BME280;46274;47.168;27.604;2023-05-18T03:52:56;99977.69;;;15.63;73.80
60427;BME280;46274;47.168;27.604;2023-05-18T03:58:58;99914.88;;;15.56;71.90
60427;BME280;46274;47.168;27.604;2023-05-18T04:05:00;99944.28;;;15.67;72.09
60427;BME280;46274;47.168;27.604;2023-05-18T04:11:02;99914.47;;;15.59;70.08
60427;BME280;46274;47.168;27.604;2023-05-18T04:17:04;99853.22;;;14.62;72.66
60427;BME280;46274;47.168;27.604;2023-05-18T04:23:07;100002.44;;;14.95;77.32
60427;BME280;46274;47.168;27.604;2023-05-18T04:29:10;99937.81;;;15.42;71.92
60427;BME280;46274;47.168;27.604;2023-05-18T04:35:14;100021.59;;;15.55;73.48
60427;BME280;46274;47.168;27.604;2023-05-18T04:41:16;99985.03;;;15.36;73.04
60427;BME280;46274;47.168;27.604;2023-05-18T04:47:20;100021.78;;;15.66;74.03
60427;BME280;46274;47.168;27.604;2023-05-18T04:53:24;99955.22;;;15.74;72.06
60427;BME280;46274;47.168;27.604;2023-05-18T04:59:27;100025.66;;;16.44;70.89
60427;BME280;46274;47.168;27.604;2023-05-18T05:05:29;99953.03;;;16.09;70.87
60427;BME280;46274;47.168;27.604;2023-05-18T05:11:32;100034.53;;;16.91;69.52
60427;BME280;46274;47.168;27.604;2023-05-18T05:17:34;99966.94;;;16.53;70.17
60427;BME280;46274;47.168;27.604;2023-05-18T05:23:36;100040.41;;;17.26;69.05
60427;BME280;46274;47.168;27.604;2023-05-18T05:29:37;100035.88;;;17.70;67.99
60427;BME280;46274;47.168;27.604;2023-05-18T05:35:39;99898.22;;;17.50;66.69
60427;BME280;46274;47.168;27.604;2023-05-18T05:41:41;100051.84;;;18.79;65.20
60427;BME280;46274;47.168;27.604;2023-05-18T05:47:43;100058.81;;;19.11;63.57
60427;BME280;46274;47.168;27.604;2023-05-18T05:53:44;100028.66;;;18.93;62.96
60427;BME280;46274;47.168;27.604;2023-05-18T05:59:47;100044.81;;;19.43;61.81
60427;BME280;46274;47.168;27.604;2023-05-18T06:05:49;100047.47;;;19.61;61.40
60427;BME280;46274;47.168;27.604;2023-05-18T06:11:51;100074.31;;;19.78;62.30
60427;BME280;46274;47.168;27.604;2023-05-18T06:17:54;100086.28;;;20.19;62.08
60427;BME280;46274;47.168;27.604;2023-05-18T06:23:56;100078.50;;;20.63;62.15
60427;BME280;46274;47.168;27.604;2023-05-18T06:29:58;99998.50;;;20.05;62.23
60427;BME280;46274;47.168;27.604;2023-05-18T06:36:00;100031.63;;;19.99;62.41
60427;BME280;46274;47.168;27.604;2023-05-18T06:42:03;100045.50;;;19.92;63.28
60427;BME280;46274;47.168;27.604;2023-05-18T06:48:07;100046.53;;;20.62;62.08
60427;BME280;46274;47.168;27.604;2023-05-18T06:54:17;100088.06;;;21.58;61.87
60427;BME280;46274;47.168;27.604;2023-05-18T07:00:20;100105.09;;;20.98;61.38
60427;BME280;46274;47.168;27.604;2023-05-18T07:06:28;100064.38;;;21.00;58.84
60427;BME280;46274;47.168;27.604;2023-05-18T07:12:30;100115.63;;;21.58;59.78
60427;BME280;46274;47.168;27.604;2023-05-18T07:18:32;100089.25;;;21.05;58.39
60427;BME280;46274;47.168;27.604;2023-05-18T07:24:36;100041.38;;;22.19;56.48
60427;BME280;46274;47.168;27.604;2023-05-18T07:30:44;100093.13;;;21.95;57.89
60427;BME280;46274;47.168;27.604;2023-05-18T07:36:47;100068.53;;;22.10;57.52
60427;BME280;46274;47.168;27.604;2023-05-18T07:42:49;100121.34;;;23.14;56.02
60427;BME280;46274;47.168;27.604;2023-05-18T07:48:51;100010.91;;;22.14;55.20
60427;BME280;46274;47.168;27.604;2023-05-18T07:54:56;100071.19;;;22.61;54.17
60427;BME280;46274;47.168;27.604;2023-05-18T08:00:59;100091.94;;;23.29;49.94
60427;BME280;46274;47.168;27.604;2023-05-18T08:07:01;100109.16;;;23.64;49.07
60427;BME280;46274;47.168;27.604;2023-05-18T08:13:05;100115.41;;;22.83;48.45
60427;BME280;46274;47.168;27.604;2023-05-18T08:19:07;100066.78;;;23.58;43.54
60427;BME280;46274;47.168;27.604;2023-05-18T08:25:13;100123.78;;;23.86;42.76
60427;BME280;46274;47.168;27.604;2023-05-18T08:31:17;100096.56;;;23.73;42.02
60427;BME280;46274;47.168;27.604;2023-05-18T08:37:20;100111.53;;;23.28;43.34
60427;BME280;46274;47.168;27.604;2023-05-18T08:43:24;100076.28;;;23.40;42.38
60427;BME280;46274;47.168;27.604;2023-05-18T08:49:36;100128.47;;;24.18;43.15
60427;BME280;46274;47.168;27.604;2023-05-18T08:55:40;100133.59;;;24.79;42.71
60427;BME280;46274;47.168;27.604;2023-05-18T09:01:43;100068.94;;;23.78;43.21
60427;BME280;46274;47.168;27.604;2023-05-18T09:07:46;100124.53;;;24.09;40.03
60427;BME280;46274;47.168;27.604;2023-05-18T09:13:49;100044.25;;;24.09;41.90
60427;BME280;46274;47.168;27.604;2023-05-18T09:19:56;100086.25;;;24.01;39.26
60427;BME280;46274;47.168;27.604;2023-05-18T09:26:00;100118.66;;;24.37;41.04
60427;BME280;46274;47.168;27.604;2023-05-18T09:32:09;100077.09;;;24.37;39.46
60427;BME280;46274;47.168;27.604;2023-05-18T09:38:12;100078.28;;;24.47;40.68
60427;BME280;46274;47.168;27.604;2023-05-18T09:44:29;100122.63;;;25.05;39.30
60427;BME280;46274;47.168;27.604;2023-05-18T09:50:32;100040.31;;;25.15;38.45
60427;BME280;46274;47.168;27.604;2023-05-18T09:56:35;100085.66;;;24.78;38.45
60427;BME280;46274;47.168;27.604;2023-05-18T10:03:00;100110.25;;;25.28;38.45
60427;BME280;46274;47.168;27.604;2023-05-18T10:09:27;100106.19;;;24.88;38.87
60427;BME280;46274;47.168;27.604;2023-05-18T10:15:30;100070.16;;;24.83;38.49
60427;BME280;46274;47.168;27.604;2023-05-18T10:21:35;100094.09;;;25.14;36.90
60427;BME280;46274;47.168;27.604;2023-05-18T10:27:42;99996.38;;;24.61;36.49
60427;BME280;46274;47.168;27.604;2023-05-18T10:33:45;100080.91;;;25.52;36.20
60427;BME280;46274;47.168;27.604;2023-05-18T10:39:47;100024.84;;;25.40;35.32
60427;BME280;46274;47.168;27.604;2023-05-18T10:46:01;100087.06;;;26.00;35.29
60427;BME280;46274;47.168;27.604;2023-05-18T10:52:03;100059.28;;;26.21;34.58
60427;BME280;46274;47.168;27.604;2023-05-18T10:58:10;100090.84;;;26.50;35.01
60427;BME280;46274;47.168;27.604;2023-05-18T11:04:14;100091.28;;;25.09;36.57
60427;BME280;46274;47.168;27.604;2023-05-18T11:10:17;100055.94;;;25.73;35.05
60427;BME280;46274;47.168;27.604;2023-05-18T11:16:19;100024.22;;;25.02;35.99
60427;BME280;46274;47.168;27.604;2023-05-18T11:22:22;100062.84;;;25.34;36.40
60427;BME280;46274;47.168;27.604;2023-05-18T11:28:29;100082.81;;;26.49;35.08
60427;BME280;46274;47.168;27.604;2023-05-18T11:34:51;100080.81;;;25.16;36.29
60427;BME280;46274;47.168;27.604;2023-05-18T11:40:57;100042.34;;;25.51;34.99
60427;BME280;46274;47.168;27.604;2023-05-18T11:47:08;100092.03;;;26.08;34.04
60427;BME280;46274;47.168;27.604;2023-05-18T11:53:14;100075.34;;;26.34;36.30
60427;BME280;46274;47.168;27.604;2023-05-18T11:59:29;100025.88;;;25.13;36.63
60427;BME280;46274;47.168;27.604;2023-05-18T12:05:34;100033.75;;;25.73;34.98
60427;BME280;46274;47.168;27.604;2023-05-18T12:11:38;100073.41;;;26.35;33.56
60427;BME280;46274;47.168;27.604;2023-05-18T12:17:46;100097.00;;;26.42;32.20
60427;BME280;46274;47.168;27.604;2023-05-18T12:23:57;100011.81;;;25.76;33.36
60427;BME280;46274;47.168;27.604;2023-05-18T12:30:08;100010.44;;;25.38;33.55
60427;BME280;46274;47.168;27.604;2023-05-18T12:36:13;100079.13;;;26.74;32.01
60427;BME280;46274;47.168;27.604;2023-05-18T12:42:19;100070.03;;;26.58;32.35
60427;BME280;46274;47.168;27.604;2023-05-18T13:04:44;100016.06;;;24.17;34.58
60427;BME280;46274;47.168;27.604;2023-05-18T13:11:12;99942.97;;;25.07;33.41
60427;BME280;46274;47.168;27.604;2023-05-18T13:18:07;99913.59;;;24.07;33.67
60427;BME280;46274;47.168;27.604;2023-05-18T13:24:35;100024.47;;;24.95;32.30
60427;BME280;46274;47.168;27.604;2023-05-18T13:31:10;99928.25;;;24.75;31.77
60427;BME280;46274;47.168;27.604;2023-05-18T13:37:53;99969.34;;;25.81;31.08
60427;BME280;46274;47.168;27.604;2023-05-18T13:44:24;100019.88;;;25.88;32.70
60427;BME280;46274;47.168;27.604;2023-05-18T13:51:10;99936.00;;;23.63;43.19
60427;BME280;46274;47.168;27.604;2023-05-18T13:58:03;99951.03;;;23.72;43.44
60427;BME280;46274;47.168;27.604;2023-05-18T14:04:56;100018.09;;;24.95;43.75
60427;BME280;46274;47.168;27.604;2023-05-18T14:11:43;99940.47;;;24.85;43.84
60427;BME280;46274;47.168;27.604;2023-05-18T14:24:59;99957.13;;;24.95;44.58
60427;BME280;46274;47.168;27.604;2023-05-18T14:31:07;100027.31;;;25.21;45.13
60427;BME280;46274;47.168;27.604;2023-05-18T14:37:20;100077.56;;;25.71;44.20
60427;BME280;46274;47.168;27.604;2023-05-18T14:43:31;100088.91;;;25.28;44.42
60427;BME280;46274;47.168;27.604;2023-05-18T14:50:09;99931.13;;;23.05;47.19
60427;BME280;46274;47.168;27.604;2023-05-18T14:56:37;99905.03;;;23.23;46.95
60427;BME280;46274;47.168;27.604;2023-05-18T15:03:08;100049.25;;;24.12;46.39
60427;BME280;46274;47.168;27.604;2023-05-18T15:09:20;100034.34;;;24.18;47.04
60427;BME280;46274;47.168;27.604;2023-05-18T15:15:36;100042.56;;;23.70;48.30
60427;BME280;46274;47.168;27.604;2023-05-18T15:21:42;100039.59;;;23.77;48.74
60427;BME280;46274;47.168;27.604;2023-05-18T15:27:48;100082.69;;;24.05;49.40
60427;BME280;46274;47.168;27.604;2023-05-18T15:41:24;100094.75;;;23.62;51.38
60427;BME280;46274;47.168;27.604;2023-05-18T15:47:39;100058.81;;;22.25;55.82
60427;BME280;46274;47.168;27.604;2023-05-18T15:53:46;100101.25;;;22.57;58.19
60427;BME280;46274;47.168;27.604;2023-05-18T15:59:53;99941.00;;;21.19;60.31
60427;BME280;46274;47.168;27.604;2023-05-18T16:06:53;99954.72;;;20.68;61.20
60427;BME280;46274;47.168;27.604;2023-05-18T16:13:21;99958.34;;;19.57;64.62
60427;BME280;46274;47.168;27.604;2023-05-18T16:19:43;99958.00;;;19.77;63.90
60427;BME280;46274;47.168;27.604;2023-05-18T16:26:22;100103.13;;;21.10;61.84
60427;BME280;46274;47.168;27.604;2023-05-18T16:32:58;100019.03;;;20.38;62.58
60427;BME280;46274;47.168;27.604;2023-05-18T16:39:13;100133.28;;;20.64;61.90
60427;BME280;46274;47.168;27.604;2023-05-18T16:45:52;100132.69;;;20.27;63.32
60427;BME280;46274;47.168;27.604;2023-05-18T16:52:22;100167.56;;;19.91;64.12
60427;BME280;46274;47.168;27.604;2023-05-18T16:58:47;100104.47;;;19.54;63.07
60427;BME280;46274;47.168;27.604;2023-05-18T17:05:01;100174.00;;;19.55;64.37
60427;BME280;46274;47.168;27.604;2023-05-18T17:11:12;100041.53;;;18.74;63.75
60427;BME280;46274;47.168;27.604;2023-05-18T17:17:22;100096.25;;;18.32;65.44
60427;BME280;46274;47.168;27.604;2023-05-18T17:23:42;100190.97;;;18.60;66.32
60427;BME280;46274;47.168;27.604;2023-05-18T17:30:02;100122.41;;;18.09;66.30
60427;BME280;46274;47.168;27.604;2023-05-18T17:36:15;100212.44;;;18.63;66.13
60427;BME280;46274;47.168;27.604;2023-05-18T17:42:40;100217.91;;;18.44;66.61
60427;BME280;46274;47.168;27.604;2023-05-18T17:48:49;100145.72;;;18.00;65.85
60427;BME280;46274;47.168;27.604;2023-05-18T17:55:07;100158.41;;;17.95;66.72
60427;BME280;46274;47.168;27.604;2023-05-18T18:01:14;100228.78;;;18.01;67.20
60427;BME280;46274;47.168;27.604;2023-05-18T18:07:40;100185.41;;;17.53;67.35
60427;BME280;46274;47.168;27.604;2023-05-18T18:13:59;100234.50;;;17.61;67.73
60427;BME280;46274;47.168;27.604;2023-05-18T18:20:19;100266.75;;;17.59;68.27
60427;BME280;46274;47.168;27.604;2023-05-18T18:26:54;100219.97;;;16.95;69.00
60427;BME280;46274;47.168;27.604;2023-05-18T18:33:08;100315.88;;;17.54;68.58
60427;BME280;46274;47.168;27.604;2023-05-18T18:39:16;100311.13;;;16.96;70.01
60427;BME280;46274;47.168;27.604;2023-05-18T18:45:20;100310.06;;;17.04;69.28
60427;BME280;46274;47.168;27.604;2023-05-18T18:52:22;100144.75;;;15.80;70.21
60427;BME280;46274;47.168;27.604;2023-05-18T18:58:39;100297.47;;;16.63;70.59
60427;BME280;46274;47.168;27.604;2023-05-18T19:05:00;100299.56;;;16.27;71.24
60427;BME280;46274;47.168;27.604;2023-05-18T19:11:09;100332.81;;;16.51;70.86
60427;BME280;46274;47.168;27.604;2023-05-18T19:17:41;100336.56;;;16.30;71.15
60427;BME280;46274;47.168;27.604;2023-05-18T19:23:57;100340.09;;;16.10;71.57
60427;BME280;46274;47.168;27.604;2023-05-18T19:30:28;100343.88;;;15.61;73.28
60427;BME280;46274;47.168;27.604;2023-05-18T19:36:55;100357.75;;;15.66;72.72
60427;BME280;46274;47.168;27.604;2023-05-18T19:43:14;100372.84;;;15.56;73.18
60427;BME280;46274;47.168;27.604;2023-05-18T19:49:26;100375.13;;;15.52;72.72
60427;BME280;46274;47.168;27.604;2023-05-18T19:55:31;100317.47;;;14.49;75.04
60427;BME280;46274;47.168;27.604;2023-05-18T20:01:47;100363.13;;;14.40;76.24
60427;BME280;46274;47.168;27.604;2023-05-18T20:08:00;100380.44;;;14.97;74.03
60427;BME280;46274;47.168;27.604;2023-05-18T20:14:10;100311.00;;;14.07;75.75
60427;BME280;46274;47.168;27.604;2023-05-18T20:20:29;100324.13;;;14.04;75.54
60427;BME280;46274;47.168;27.604;2023-05-18T20:26:46;100400.00;;;14.79;73.96
60427;BME280;46274;47.168;27.604;2023-05-18T20:33:08;100351.81;;;14.44;73.87
60427;BME280;46274;47.168;27.604;2023-05-18T20:39:44;100246.28;;;13.73;73.19
60427;BME280;46274;47.168;27.604;2023-05-18T20:46:27;100301.09;;;13.85;73.65
60427;BME280;46274;47.168;27.604;2023-05-18T20:52:45;100398.91;;;14.37;73.71
60427;BME280;46274;47.168;27.604;2023-05-18T20:58:52;100260.25;;;13.48;73.61
60427;BME280;46274;47.168;27.604;2023-05-18T21:05:05;100283.84;;;13.63;73.15
60427;BME280;46274;47.168;27.604;2023-05-18T21:11:41;100463.88;;;14.49;74.02
60427;BME280;46274;47.168;27.604;2023-05-18T21:18:05;100344.66;;;14.00;73.39
60427;BME280;46274;47.168;27.604;2023-05-18T21:24:11;100412.28;;;14.32;73.60
60427;BME280;46274;47.168;27.604;2023-05-18T21:30:25;100443.38;;;14.53;73.44
60427;BME280;46274;47.168;27.604;2023-05-18T21:37:05;100460.03;;;14.43;73.56
60427;BME280;46274;47.168;27.604;2023-05-18T21:44:03;100391.53;;;13.80;74.66
60427;BME280;46274;47.168;27.604;2023-05-18T21:50:11;100372.09;;;13.83;73.02
60427;BME280;46274;47.168;27.604;2023-05-18T21:56:13;100461.47;;;14.24;73.60
60427;BME280;46274;47.168;27.604;2023-05-18T22:02:20;100463.91;;;14.19;73.94
60427;BME280;46274;47.168;27.604;2023-05-18T22:08:42;100464.97;;;14.18;74.14
60427;BME280;46274;47.168;27.604;2023-05-18T22:15:13;100467.03;;;14.16;74.22
60427;BME280;46274;47.168;27.604;2023-05-18T22:21:29;100476.25;;;14.15;74.41
60427;BME280;46274;47.168;27.604;2023-05-18T22:27:38;100418.66;;;13.88;73.96
60427;BME280;46274;47.168;27.604;2023-05-18T22:33:45;100412.50;;;13.65;74.84
60427;BME280;46274;47.168;27.604;2023-05-18T22:40:16;100278.56;;;13.10;73.39
60427;BME280;46274;47.168;27.604;2023-05-18T22:46:49;100305.47;;;13.20;73.74
60427;BME280;46274;47.168;27.604;2023-05-18T22:53:16;100290.28;;;13.10;73.46
60427;BME280;46274;47.168;27.604;2023-05-18T22:59:42;100278.72;;;12.79;74.40
60427;BME280;46274;47.168;27.604;2023-05-18T23:05:58;100278.16;;;12.98;74.05
60427;BME280;46274;47.168;27.604;2023-05-18T23:12:13;100483.38;;;14.16;74.34
60427;BME280;46274;47.168;27.604;2023-05-18T23:18:34;100289.25;;;12.97;74.56
60427;BME280;46274;47.168;27.604;2023-05-18T23:24:47;100402.72;;;13.70;73.93
60427;BME280;46274;47.168;27.604;2023-05-18T23:30:58;100454.19;;;13.80;74.45
60427;BME280;46274;47.168;27.604;2023-05-18T23:37:06;100425.16;;;13.72;74.09
60427;BME280;46274;47.168;27.604;2023-05-18T23:43:26;100490.34;;;13.74;75.64
60427;BME280;46274;47.168;27.604;2023-05-18T23:49:33;100486.88;;;14.10;73.97
60427;BME280;46274;47.168;27.604;2023-05-18T23:55:40;100483.47;;;13.78;75.13
